sensor_id;sensor_type;location;lat;lon;timestamp;temperature;humidity
40534;DHT22;26233;51.894;10.192;2024-01-27T00:00:27;7.80;51.10
40534;DHT22;26233;51.894;10.192;2024-01-27T00:02:54;7.80;51.10
40534;DHT22;26233;51.894;10.192;2024-01-27T00:05:21;7.80;51.10
40534;DHT22;26233;51.894;10.192;2024-01-27T00:07:49;7.90;51.20
40534;DHT22;26233;51.894;10.192;2024-01-27T00:10:17;7.80;51.10
40534;DHT22;26233;51.894;10.192;2024-01-27T00:12:44;7.80;51.10
40534;DHT22;26233;51.894;10.192;2024-01-27T00:15:11;7.80;51.10
40534;DHT22;26233;51.894;10.192;2024-01-27T00:17:38;7.80;51.00
40534;DHT22;26233;51.894;10.192;2024-01-27T00:20:07;7.80;51.00
40534;DHT22;26233;51.894;10.192;2024-01-27T00:22:34;7.80;50.90
40534;DHT22;26233;51.894;10.192;2024-01-27T00:25:03;7.80;50.90
40534;DHT22;26233;51.894;10.192;2024-01-27T00:27:31;7.80;50.70
40534;DHT22;26233;51.894;10.192;2024-01-27T00:29:58;7.80;50.80
40534;DHT22;26233;51.894;10.192;2024-01-27T00:32:25;7.80;50.70
40534;DHT22;26233;51.894;10.192;2024-01-27T00:34:53;7.60;50.60
40534;DHT22;26233;51.894;10.192;2024-01-27T00:37:20;7.80;50.80
40534;DHT22;26233;51.894;10.192;2024-01-27T00:39:47;7.70;50.80
40534;DHT22;26233;51.894;10.192;2024-01-27T00:42:16;7.70;50.80
40534;DHT22;26233;51.894;10.192;2024-01-27T00:44:44;7.70;50.80
40534;DHT22;26233;51.894;10.192;2024-01-27T00:47:11;7.70;51.40
40534;DHT22;26233;51.894;10.192;2024-01-27T00:49:39;7.70;50.70
40534;DHT22;26233;51.894;10.192;2024-01-27T00:52:06;7.70;50.80
40534;DHT22;26233;51.894;10.192;2024-01-27T00:54:33;7.60;50.60
40534;DHT22;26233;51.894;10.192;2024-01-27T00:57:00;7.70;50.80
40534;DHT22;26233;51.894;10.192;2024-01-27T00:59:29;7.60;50.60
40534;DHT22;26233;51.894;10.192;2024-01-27T01:01:56;7.60;50.70
40534;DHT22;26233;51.894;10.192;2024-01-27T01:04:23;7.50;50.60
40534;DHT22;26233;51.894;10.192;2024-01-27T01:06:50;7.50;50.50
40534;DHT22;26233;51.894;10.192;2024-01-27T01:09:17;7.50;50.70
40534;DHT22;26233;51.894;10.192;2024-01-27T01:11:45;7.50;50.70
40534;DHT22;26233;51.894;10.192;2024-01-27T01:14:12;7.40;50.80
40534;DHT22;26233;51.894;10.192;2024-01-27T01:16:41;7.40;50.80
40534;DHT22;26233;51.894;10.192;2024-01-27T01:19:08;7.40;50.80
40534;DHT22;26233;51.894;10.192;2024-01-27T01:21:35;7.50;51.00
40534;DHT22;26233;51.894;10.192;2024-01-27T01:24:03;7.40;50.90
40534;DHT22;26233;51.894;10.192;2024-01-27T01:26:30;7.50;51.00
40534;DHT22;26233;51.894;10.192;2024-01-27T01:28:57;7.50;51.00
40534;DHT22;26233;51.894;10.192;2024-01-27T01:31:24;7.50;51.10
40534;DHT22;26233;51.894;10.192;2024-01-27T01:33:53;7.50;51.10
40534;DHT22;26233;51.894;10.192;2024-01-27T01:36:20;7.60;51.20
40534;DHT22;26233;51.894;10.192;2024-01-27T01:38:47;7.60;51.20
40534;DHT22;26233;51.894;10.192;2024-01-27T01:41:15;7.60;51.10
40534;DHT22;26233;51.894;10.192;2024-01-27T01:43:42;7.60;51.00
40534;DHT22;26233;51.894;10.192;2024-01-27T01:46:09;7.60;51.00
40534;DHT22;26233;51.894;10.192;2024-01-27T01:48:36;7.60;50.90
40534;DHT22;26233;51.894;10.192;2024-01-27T01:51:05;7.60;50.90
40534;DHT22;26233;51.894;10.192;2024-01-27T01:53:32;7.50;50.90
40534;DHT22;26233;51.894;10.192;2024-01-27T01:55:59;7.50;50.90
40534;DHT22;26233;51.894;10.192;2024-01-27T01:58:28;7.50;50.90
40534;DHT22;26233;51.894;10.192;2024-01-27T02:01:00;7.50;50.90
40534;DHT22;26233;51.894;10.192;2024-01-27T02:03:27;7.50;50.90
40534;DHT22;26233;51.894;10.192;2024-01-27T02:05:54;7.50;50.80
40534;DHT22;26233;51.894;10.192;2024-01-27T02:08:23;7.50;50.90
40534;DHT22;26233;51.894;10.192;2024-01-27T02:10:51;7.40;50.80
40534;DHT22;26233;51.894;10.192;2024-01-27T02:13:19;7.40;50.80
40534;DHT22;26233;51.894;10.192;2024-01-27T02:15:48;7.40;50.90
40534;DHT22;26233;51.894;10.192;2024-01-27T02:18:16;7.30;50.90
40534;DHT22;26233;51.894;10.192;2024-01-27T02:20:43;7.30;50.90
40534;DHT22;26233;51.894;10.192;2024-01-27T02:23:11;7.30;50.90
40534;DHT22;26233;51.894;10.192;2024-01-27T02:25:39;7.30;50.90
40534;DHT22;26233;51.894;10.192;2024-01-27T02:28:06;7.30;51.00
40534;DHT22;26233;51.894;10.192;2024-01-27T02:30:33;7.30;51.00
40534;DHT22;26233;51.894;10.192;2024-01-27T02:33:01;7.20;50.90
40534;DHT22;26233;51.894;10.192;2024-01-27T02:35:28;7.20;50.90
40534;DHT22;26233;51.894;10.192;2024-01-27T02:37:55;7.20;51.00
40534;DHT22;26233;51.894;10.192;2024-01-27T02:40:22;7.20;51.00
40534;DHT22;26233;51.894;10.192;2024-01-27T02:42:50;7.10;51.00
40534;DHT22;26233;51.894;10.192;2024-01-27T02:45:18;7.10;51.00
40534;DHT22;26233;51.894;10.192;2024-01-27T02:47:45;7.10;51.00
40534;DHT22;26233;51.894;10.192;2024-01-27T02:50:12;7.10;51.10
40534;DHT22;26233;51.894;10.192;2024-01-27T02:52:39;7.10;51.20
40534;DHT22;26233;51.894;10.192;2024-01-27T02:55:07;7.10;51.80
40534;DHT22;26233;51.894;10.192;2024-01-27T02:57:34;7.10;51.30
40534;DHT22;26233;51.894;10.192;2024-01-27T03:00:03;7.00;51.30
40534;DHT22;26233;51.894;10.192;2024-01-27T03:02:31;7.10;51.40
40534;DHT22;26233;51.894;10.192;2024-01-27T03:04:59;7.10;51.50
40534;DHT22;26233;51.894;10.192;2024-01-27T03:07:27;7.10;51.40
40534;DHT22;26233;51.894;10.192;2024-01-27T03:09:54;7.10;51.40
40534;DHT22;26233;51.894;10.192;2024-01-27T03:12:21;7.10;52.10
40534;DHT22;26233;51.894;10.192;2024-01-27T03:14:49;7.10;51.50
40534;DHT22;26233;51.894;10.192;2024-01-27T03:17:18;7.10;51.40
40534;DHT22;26233;51.894;10.192;2024-01-27T03:19:45;7.20;51.60
40534;DHT22;26233;51.894;10.192;2024-01-27T03:22:12;7.20;51.50
40534;DHT22;26233;51.894;10.192;2024-01-27T03:24:39;7.20;51.60
40534;DHT22;26233;51.894;10.192;2024-01-27T03:27:07;7.20;51.60
40534;DHT22;26233;51.894;10.192;2024-01-27T03:29:34;7.20;51.60
40534;DHT22;26233;51.894;10.192;2024-01-27T03:32:01;7.20;51.60
40534;DHT22;26233;51.894;10.192;2024-01-27T03:34:30;7.20;51.60
40534;DHT22;26233;51.894;10.192;2024-01-27T03:36:57;7.20;51.60
40534;DHT22;26233;51.894;10.192;2024-01-27T03:39:24;7.20;51.50
40534;DHT22;26233;51.894;10.192;2024-01-27T03:41:51;7.20;51.50
40534;DHT22;26233;51.894;10.192;2024-01-27T03:44:18;7.20;51.60
40534;DHT22;26233;51.894;10.192;2024-01-27T03:46:46;7.30;51.70
40534;DHT22;26233;51.894;10.192;2024-01-27T03:49:14;7.30;51.70
40534;DHT22;26233;51.894;10.192;2024-01-27T03:51:42;7.30;51.70
40534;DHT22;26233;51.894;10.192;2024-01-27T03:54:09;7.30;51.70
40534;DHT22;26233;51.894;10.192;2024-01-27T03:56:36;7.30;51.70
40534;DHT22;26233;51.894;10.192;2024-01-27T03:59:04;7.30;52.20
40534;DHT22;26233;51.894;10.192;2024-01-27T04:01:32;7.30;51.60
40534;DHT22;26233;51.894;10.192;2024-01-27T04:03:59;7.30;51.70
40534;DHT22;26233;51.894;10.192;2024-01-27T04:06:26;7.30;51.70
40534;DHT22;26233;51.894;10.192;2024-01-27T04:08:55;7.30;51.70
40534;DHT22;26233;51.894;10.192;2024-01-27T04:11:22;7.30;51.70
40534;DHT22;26233;51.894;10.192;2024-01-27T04:13:50;7.40;51.80
40534;DHT22;26233;51.894;10.192;2024-01-27T04:16:17;7.30;51.70
40534;DHT22;26233;51.894;10.192;2024-01-27T04:18:44;7.40;51.80
40534;DHT22;26233;51.894;10.192;2024-01-27T04:21:11;7.40;51.80
40534;DHT22;26233;51.894;10.192;2024-01-27T04:23:39;7.40;51.80
40534;DHT22;26233;51.894;10.192;2024-01-27T04:26:07;7.40;51.70
40534;DHT22;26233;51.894;10.192;2024-01-27T04:28:35;7.40;51.80
40534;DHT22;26233;51.894;10.192;2024-01-27T04:31:02;7.40;51.80
40534;DHT22;26233;51.894;10.192;2024-01-27T04:33:30;7.40;51.80
40534;DHT22;26233;51.894;10.192;2024-01-27T04:35:57;7.40;51.80
40534;DHT22;26233;51.894;10.192;2024-01-27T04:38:24;7.50;52.00
40534;DHT22;26233;51.894;10.192;2024-01-27T04:40:52;7.40;51.80
40534;DHT22;26233;51.894;10.192;2024-01-27T04:43:20;7.50;51.90
40534;DHT22;26233;51.894;10.192;2024-01-27T04:45:47;7.50;52.40
40534;DHT22;26233;51.894;10.192;2024-01-27T04:48:15;7.50;51.80
40534;DHT22;26233;51.894;10.192;2024-01-27T04:50:43;7.50;51.80
40534;DHT22;26233;51.894;10.192;2024-01-27T04:53:10;7.50;51.70
40534;DHT22;26233;51.894;10.192;2024-01-27T04:55:37;7.50;51.70
40534;DHT22;26233;51.894;10.192;2024-01-27T04:58:04;7.40;51.70
40534;DHT22;26233;51.894;10.192;2024-01-27T05:00:34;7.40;52.20
40534;DHT22;26233;51.894;10.192;2024-01-27T05:03:02;7.40;51.60
40534;DHT22;26233;51.894;10.192;2024-01-27T05:05:30;7.40;51.60
40534;DHT22;26233;51.894;10.192;2024-01-27T05:07:57;7.40;51.60
40534;DHT22;26233;51.894;10.192;2024-01-27T05:10:24;7.40;51.70
40534;DHT22;26233;51.894;10.192;2024-01-27T05:12:52;7.30;51.60
40534;DHT22;26233;51.894;10.192;2024-01-27T05:15:20;7.30;51.60
40534;DHT22;26233;51.894;10.192;2024-01-27T05:17:49;7.30;51.60
40534;DHT22;26233;51.894;10.192;2024-01-27T05:20:17;7.30;51.60
40534;DHT22;26233;51.894;10.192;2024-01-27T05:22:44;7.30;51.60
40534;DHT22;26233;51.894;10.192;2024-01-27T05:25:12;7.30;51.70
40534;DHT22;26233;51.894;10.192;2024-01-27T05:27:39;7.30;51.70
40534;DHT22;26233;51.894;10.192;2024-01-27T05:30:07;7.20;51.60
40534;DHT22;26233;51.894;10.192;2024-01-27T05:32:35;7.30;51.70
40534;DHT22;26233;51.894;10.192;2024-01-27T05:35:05;7.20;51.60
40534;DHT22;26233;51.894;10.192;2024-01-27T05:37:33;7.20;51.60
40534;DHT22;26233;51.894;10.192;2024-01-27T05:40:00;7.20;51.60
40534;DHT22;26233;51.894;10.192;2024-01-27T05:42:28;7.20;51.60
40534;DHT22;26233;51.894;10.192;2024-01-27T05:44:55;7.20;51.60
40534;DHT22;26233;51.894;10.192;2024-01-27T05:47:23;7.20;51.60
40534;DHT22;26233;51.894;10.192;2024-01-27T05:49:50;7.10;51.50
40534;DHT22;26233;51.894;10.192;2024-01-27T05:52:18;7.10;51.50
40534;DHT22;26233;51.894;10.192;2024-01-27T05:54:45;7.10;51.40
40534;DHT22;26233;51.894;10.192;2024-01-27T05:57:13;7.10;51.40
40534;DHT22;26233;51.894;10.192;2024-01-27T05:59:40;7.00;51.40
40534;DHT22;26233;51.894;10.192;2024-01-27T06:02:07;7.00;51.40
40534;DHT22;26233;51.894;10.192;2024-01-27T06:04:34;6.90;51.30
40534;DHT22;26233;51.894;10.192;2024-01-27T06:07:01;6.90;51.30
40534;DHT22;26233;51.894;10.192;2024-01-27T06:09:30;6.80;51.30
40534;DHT22;26233;51.894;10.192;2024-01-27T06:11:59;6.80;51.30
40534;DHT22;26233;51.894;10.192;2024-01-27T06:14:26;6.80;51.40
40534;DHT22;26233;51.894;10.192;2024-01-27T06:16:53;6.70;51.40
40534;DHT22;26233;51.894;10.192;2024-01-27T06:19:20;6.70;51.40
40534;DHT22;26233;51.894;10.192;2024-01-27T06:21:47;6.70;51.40
40534;DHT22;26233;51.894;10.192;2024-01-27T06:24:14;6.60;51.30
40534;DHT22;26233;51.894;10.192;2024-01-27T06:26:43;6.60;51.30
40534;DHT22;26233;51.894;10.192;2024-01-27T06:29:10;6.60;51.40
40534;DHT22;26233;51.894;10.192;2024-01-27T06:31:37;6.50;51.30
40534;DHT22;26233;51.894;10.192;2024-01-27T06:34:04;6.50;51.30
40534;DHT22;26233;51.894;10.192;2024-01-27T06:36:31;6.50;51.30
40534;DHT22;26233;51.894;10.192;2024-01-27T06:38:59;6.40;51.30
40534;DHT22;26233;51.894;10.192;2024-01-27T06:41:26;6.40;51.30
40534;DHT22;26233;51.894;10.192;2024-01-27T06:43:55;6.40;51.30
40534;DHT22;26233;51.894;10.192;2024-01-27T06:46:22;6.30;51.30
40534;DHT22;26233;51.894;10.192;2024-01-27T06:48:50;6.30;51.30
40534;DHT22;26233;51.894;10.192;2024-01-27T06:51:17;6.30;51.40
40534;DHT22;26233;51.894;10.192;2024-01-27T06:53:44;6.20;51.30
40534;DHT22;26233;51.894;10.192;2024-01-27T06:56:13;6.20;51.40
40534;DHT22;26233;51.894;10.192;2024-01-27T06:58:41;6.20;51.30
40534;DHT22;26233;51.894;10.192;2024-01-27T07:01:09;6.20;51.30
40534;DHT22;26233;51.894;10.192;2024-01-27T07:03:37;6.10;51.30
40534;DHT22;26233;51.894;10.192;2024-01-27T07:06:05;6.10;51.30
40534;DHT22;26233;51.894;10.192;2024-01-27T07:08:32;6.10;51.40
40534;DHT22;26233;51.894;10.192;2024-01-27T07:11:00;6.10;51.50
40534;DHT22;26233;51.894;10.192;2024-01-27T07:13:28;6.00;51.40
40534;DHT22;26233;51.894;10.192;2024-01-27T07:15:56;6.00;51.50
40534;DHT22;26233;51.894;10.192;2024-01-27T07:18:25;6.00;51.60
40534;DHT22;26233;51.894;10.192;2024-01-27T07:20:52;6.00;51.50
40534;DHT22;26233;51.894;10.192;2024-01-27T07:23:20;6.00;51.60
40534;DHT22;26233;51.894;10.192;2024-01-27T07:25:47;6.00;51.60
40534;DHT22;26233;51.894;10.192;2024-01-27T07:28:14;6.10;51.70
40534;DHT22;26233;51.894;10.192;2024-01-27T07:30:44;6.00;51.60
40534;DHT22;26233;51.894;10.192;2024-01-27T07:33:12;6.00;51.60
40534;DHT22;26233;51.894;10.192;2024-01-27T07:35:40;6.00;51.60
40534;DHT22;26233;51.894;10.192;2024-01-27T07:38:07;6.00;51.70
40534;DHT22;26233;51.894;10.192;2024-01-27T07:40:35;6.00;51.70
40534;DHT22;26233;51.894;10.192;2024-01-27T07:43:02;6.00;51.70
40534;DHT22;26233;51.894;10.192;2024-01-27T07:45:29;6.00;51.80
40534;DHT22;26233;51.894;10.192;2024-01-27T07:47:56;6.00;51.80
40534;DHT22;26233;51.894;10.192;2024-01-27T07:50:24;6.00;51.80
40534;DHT22;26233;51.894;10.192;2024-01-27T07:52:52;6.00;51.80
40534;DHT22;26233;51.894;10.192;2024-01-27T07:55:20;6.00;51.90
40534;DHT22;26233;51.894;10.192;2024-01-27T07:57:47;6.00;51.90
40534;DHT22;26233;51.894;10.192;2024-01-27T08:00:15;6.00;52.00
40534;DHT22;26233;51.894;10.192;2024-01-27T08:02:42;6.10;52.00
40534;DHT22;26233;51.894;10.192;2024-01-27T08:05:10;6.10;52.00
40534;DHT22;26233;51.894;10.192;2024-01-27T08:07:37;6.10;52.10
40534;DHT22;26233;51.894;10.192;2024-01-27T08:10:06;6.20;52.30
40534;DHT22;26233;51.894;10.192;2024-01-27T08:12:37;6.20;52.40
40534;DHT22;26233;51.894;10.192;2024-01-27T08:15:05;6.30;52.70
40534;DHT22;26233;51.894;10.192;2024-01-27T08:17:33;6.40;53.00
40534;DHT22;26233;51.894;10.192;2024-01-27T08:20:00;6.50;53.00
40534;DHT22;26233;51.894;10.192;2024-01-27T08:22:28;6.70;53.10
40534;DHT22;26233;51.894;10.192;2024-01-27T08:24:55;6.80;53.00
40534;DHT22;26233;51.894;10.192;2024-01-27T08:27:24;6.80;52.80
40534;DHT22;26233;51.894;10.192;2024-01-27T08:29:51;6.90;52.60
40534;DHT22;26233;51.894;10.192;2024-01-27T08:32:18;7.00;52.50
40534;DHT22;26233;51.894;10.192;2024-01-27T08:34:46;7.00;52.40
40534;DHT22;26233;51.894;10.192;2024-01-27T08:37:15;7.00;52.30
40534;DHT22;26233;51.894;10.192;2024-01-27T08:39:44;7.10;52.30
40534;DHT22;26233;51.894;10.192;2024-01-27T08:42:12;7.10;52.40
40534;DHT22;26233;51.894;10.192;2024-01-27T08:44:41;7.10;52.50
40534;DHT22;26233;51.894;10.192;2024-01-27T08:47:08;7.10;53.30
40534;DHT22;26233;51.894;10.192;2024-01-27T08:49:35;7.30;53.30
40534;DHT22;26233;51.894;10.192;2024-01-27T08:52:03;7.40;53.50
40534;DHT22;26233;51.894;10.192;2024-01-27T08:54:30;7.60;53.70
40534;DHT22;26233;51.894;10.192;2024-01-27T08:56:57;7.80;53.80
40534;DHT22;26233;51.894;10.192;2024-01-27T08:59:24;8.00;54.10
40534;DHT22;26233;51.894;10.192;2024-01-27T09:01:53;8.20;54.50
40534;DHT22;26233;51.894;10.192;2024-01-27T09:04:20;8.50;55.00
40534;DHT22;26233;51.894;10.192;2024-01-27T09:06:47;8.90;55.30
40534;DHT22;26233;51.894;10.192;2024-01-27T09:09:14;9.20;55.40
40534;DHT22;26233;51.894;10.192;2024-01-27T09:11:42;9.50;55.40
40534;DHT22;26233;51.894;10.192;2024-01-27T09:14:10;9.80;55.10
40534;DHT22;26233;51.894;10.192;2024-01-27T09:16:37;10.10;54.00
40534;DHT22;26233;51.894;10.192;2024-01-27T09:19:07;10.40;53.90
40534;DHT22;26233;51.894;10.192;2024-01-27T09:21:34;10.70;53.80
40534;DHT22;26233;51.894;10.192;2024-01-27T09:24:03;11.00;53.70
40534;DHT22;26233;51.894;10.192;2024-01-27T09:26:30;11.20;53.60
40534;DHT22;26233;51.894;10.192;2024-01-27T09:28:57;11.40;53.30
40534;DHT22;26233;51.894;10.192;2024-01-27T09:31:25;11.60;53.10
40534;DHT22;26233;51.894;10.192;2024-01-27T09:33:53;11.80;53.40
40534;DHT22;26233;51.894;10.192;2024-01-27T09:36:23;12.10;53.50
40534;DHT22;26233;51.894;10.192;2024-01-27T09:38:50;12.30;53.00
40534;DHT22;26233;51.894;10.192;2024-01-27T09:41:18;12.40;52.10
40534;DHT22;26233;51.894;10.192;2024-01-27T09:43:46;12.50;51.50
40534;DHT22;26233;51.894;10.192;2024-01-27T09:46:14;12.50;51.20
40534;DHT22;26233;51.894;10.192;2024-01-27T09:48:42;12.40;50.70
40534;DHT22;26233;51.894;10.192;2024-01-27T09:51:10;12.40;50.50
40534;DHT22;26233;51.894;10.192;2024-01-27T09:53:39;12.30;50.40
40534;DHT22;26233;51.894;10.192;2024-01-27T09:56:07;12.30;50.30
40534;DHT22;26233;51.894;10.192;2024-01-27T09:58:36;12.10;49.80
40534;DHT22;26233;51.894;10.192;2024-01-27T10:01:04;12.10;49.70
40534;DHT22;26233;51.894;10.192;2024-01-27T10:03:32;11.90;49.60
40534;DHT22;26233;51.894;10.192;2024-01-27T10:06:00;11.80;49.70
40534;DHT22;26233;51.894;10.192;2024-01-27T10:08:28;11.80;50.00
40534;DHT22;26233;51.894;10.192;2024-01-27T10:10:57;11.80;50.50
40534;DHT22;26233;51.894;10.192;2024-01-27T10:13:24;11.80;50.40
40534;DHT22;26233;51.894;10.192;2024-01-27T10:16:02;11.80;50.50
40534;DHT22;26233;51.894;10.192;2024-01-27T10:18:31;11.80;49.60
40534;DHT22;26233;51.894;10.192;2024-01-27T10:20:59;11.70;50.00
40534;DHT22;26233;51.894;10.192;2024-01-27T10:23:28;11.80;50.10
40534;DHT22;26233;51.894;10.192;2024-01-27T10:25:56;11.80;50.00
40534;DHT22;26233;51.894;10.192;2024-01-27T10:28:23;11.80;50.20
40534;DHT22;26233;51.894;10.192;2024-01-27T10:30:50;11.80;50.40
40534;DHT22;26233;51.894;10.192;2024-01-27T10:33:18;11.90;50.40
40534;DHT22;26233;51.894;10.192;2024-01-27T10:35:45;11.90;50.20
40534;DHT22;26233;51.894;10.192;2024-01-27T10:38:12;12.00;50.30
40534;DHT22;26233;51.894;10.192;2024-01-27T10:40:40;12.00;50.40
40534;DHT22;26233;51.894;10.192;2024-01-27T10:43:08;12.10;50.40
40534;DHT22;26233;51.894;10.192;2024-01-27T10:45:37;12.20;50.30
40534;DHT22;26233;51.894;10.192;2024-01-27T10:48:06;12.20;50.40
40534;DHT22;26233;51.894;10.192;2024-01-27T10:50:37;12.30;50.40
40534;DHT22;26233;51.894;10.192;2024-01-27T10:53:09;12.40;50.60
40534;DHT22;26233;51.894;10.192;2024-01-27T10:55:37;12.50;50.70
40534;DHT22;26233;51.894;10.192;2024-01-27T10:58:04;12.60;51.20
40534;DHT22;26233;51.894;10.192;2024-01-27T11:00:33;12.90;51.40
40534;DHT22;26233;51.894;10.192;2024-01-27T11:03:02;13.00;51.30
40534;DHT22;26233;51.894;10.192;2024-01-27T11:05:31;13.20;51.00
40534;DHT22;26233;51.894;10.192;2024-01-27T11:08:00;13.30;50.90
40534;DHT22;26233;51.894;10.192;2024-01-27T11:10:27;13.40;50.60
40534;DHT22;26233;51.894;10.192;2024-01-27T11:13:01;13.40;50.10
40534;DHT22;26233;51.894;10.192;2024-01-27T11:15:30;13.50;50.40
40534;DHT22;26233;51.894;10.192;2024-01-27T11:17:59;13.60;50.20
40534;DHT22;26233;51.894;10.192;2024-01-27T11:20:30;13.60;49.60
40534;DHT22;26233;51.894;10.192;2024-01-27T11:23:08;13.60;49.50
40534;DHT22;26233;51.894;10.192;2024-01-27T11:25:36;13.60;49.20
40534;DHT22;26233;51.894;10.192;2024-01-27T11:28:11;13.70;50.10
40534;DHT22;26233;51.894;10.192;2024-01-27T11:30:41;13.80;49.80
40534;DHT22;26233;51.894;10.192;2024-01-27T11:33:13;13.80;50.00
40534;DHT22;26233;51.894;10.192;2024-01-27T11:35:40;13.90;49.80
40534;DHT22;26233;51.894;10.192;2024-01-27T11:38:07;14.00;49.70
40534;DHT22;26233;51.894;10.192;2024-01-27T11:40:45;14.00;49.80
40534;DHT22;26233;51.894;10.192;2024-01-27T11:43:12;14.10;49.30
40534;DHT22;26233;51.894;10.192;2024-01-27T11:45:40;14.00;49.40
40534;DHT22;26233;51.894;10.192;2024-01-27T11:48:08;14.00;48.80
40534;DHT22;26233;51.894;10.192;2024-01-27T11:50:37;13.80;48.50
40534;DHT22;26233;51.894;10.192;2024-01-27T11:53:04;13.70;48.30
40534;DHT22;26233;51.894;10.192;2024-01-27T11:55:35;13.60;48.50
40534;DHT22;26233;51.894;10.192;2024-01-27T11:58:02;13.50;48.50
40534;DHT22;26233;51.894;10.192;2024-01-27T12:00:30;13.40;48.50
40534;DHT22;26233;51.894;10.192;2024-01-27T12:02:57;13.30;48.30
40534;DHT22;26233;51.894;10.192;2024-01-27T12:05:25;13.20;48.40
40534;DHT22;26233;51.894;10.192;2024-01-27T12:07:53;13.10;48.40
40534;DHT22;26233;51.894;10.192;2024-01-27T12:10:20;13.10;48.40
40534;DHT22;26233;51.894;10.192;2024-01-27T12:12:48;13.10;48.50
40534;DHT22;26233;51.894;10.192;2024-01-27T12:15:15;13.10;48.60
40534;DHT22;26233;51.894;10.192;2024-01-27T12:17:50;13.10;48.60
40534;DHT22;26233;51.894;10.192;2024-01-27T12:20:17;13.10;48.50
40534;DHT22;26233;51.894;10.192;2024-01-27T12:22:45;13.10;48.70
40534;DHT22;26233;51.894;10.192;2024-01-27T12:25:14;13.10;48.70
40534;DHT22;26233;51.894;10.192;2024-01-27T12:27:42;13.10;48.80
40534;DHT22;26233;51.894;10.192;2024-01-27T12:30:10;13.20;48.60
40534;DHT22;26233;51.894;10.192;2024-01-27T12:32:38;13.20;48.40
40534;DHT22;26233;51.894;10.192;2024-01-27T12:35:06;13.20;48.30
40534;DHT22;26233;51.894;10.192;2024-01-27T12:37:34;13.20;48.40
40534;DHT22;26233;51.894;10.192;2024-01-27T12:40:18;13.10;48.10
40534;DHT22;26233;51.894;10.192;2024-01-27T12:42:46;13.10;47.60
40534;DHT22;26233;51.894;10.192;2024-01-27T12:45:13;13.00;47.90
40534;DHT22;26233;51.894;10.192;2024-01-27T12:47:40;13.00;48.10
40534;DHT22;26233;51.894;10.192;2024-01-27T12:50:08;13.00;47.90
40534;DHT22;26233;51.894;10.192;2024-01-27T12:52:36;13.00;47.90
40534;DHT22;26233;51.894;10.192;2024-01-27T12:55:04;12.90;47.80
40534;DHT22;26233;51.894;10.192;2024-01-27T12:57:33;12.90;48.00
40534;DHT22;26233;51.894;10.192;2024-01-27T13:00:02;12.90;48.00
40534;DHT22;26233;51.894;10.192;2024-01-27T13:02:35;13.00;48.30
40534;DHT22;26233;51.894;10.192;2024-01-27T13:05:04;13.10;48.60
40534;DHT22;26233;51.894;10.192;2024-01-27T13:07:32;13.10;48.40
40534;DHT22;26233;51.894;10.192;2024-01-27T13:09:59;13.20;48.20
40534;DHT22;26233;51.894;10.192;2024-01-27T13:12:26;13.20;48.10
40534;DHT22;26233;51.894;10.192;2024-01-27T13:14:54;13.30;47.70
40534;DHT22;26233;51.894;10.192;2024-01-27T13:17:22;13.30;47.70
40534;DHT22;26233;51.894;10.192;2024-01-27T13:19:49;13.40;47.90
40534;DHT22;26233;51.894;10.192;2024-01-27T13:22:17;13.40;47.30
40534;DHT22;26233;51.894;10.192;2024-01-27T13:24:45;13.50;47.50
40534;DHT22;26233;51.894;10.192;2024-01-27T13:27:13;13.50;47.60
40534;DHT22;26233;51.894;10.192;2024-01-27T13:29:40;13.50;47.50
40534;DHT22;26233;51.894;10.192;2024-01-27T13:32:09;13.50;47.50
40534;DHT22;26233;51.894;10.192;2024-01-27T13:34:36;13.60;47.40
40534;DHT22;26233;51.894;10.192;2024-01-27T13:37:04;13.60;47.50
40534;DHT22;26233;51.894;10.192;2024-01-27T13:39:31;13.60;47.30
40534;DHT22;26233;51.894;10.192;2024-01-27T13:41:58;13.70;47.20
40534;DHT22;26233;51.894;10.192;2024-01-27T13:44:25;13.70;47.20
40534;DHT22;26233;51.894;10.192;2024-01-27T13:46:52;13.60;46.60
40534;DHT22;26233;51.894;10.192;2024-01-27T13:49:24;13.60;46.90
40534;DHT22;26233;51.894;10.192;2024-01-27T13:51:51;13.60;46.50
40534;DHT22;26233;51.894;10.192;2024-01-27T13:54:18;13.50;46.70
40534;DHT22;26233;51.894;10.192;2024-01-27T13:56:45;13.50;46.60
40534;DHT22;26233;51.894;10.192;2024-01-27T13:59:13;13.50;46.60
40534;DHT22;26233;51.894;10.192;2024-01-27T14:01:40;13.50;46.50
40534;DHT22;26233;51.894;10.192;2024-01-27T14:04:07;13.40;46.40
40534;DHT22;26233;51.894;10.192;2024-01-27T14:06:36;13.40;46.50
40534;DHT22;26233;51.894;10.192;2024-01-27T14:09:03;13.40;46.20
40534;DHT22;26233;51.894;10.192;2024-01-27T14:11:31;13.30;46.20
40534;DHT22;26233;51.894;10.192;2024-01-27T14:13:58;13.30;46.20
40534;DHT22;26233;51.894;10.192;2024-01-27T14:16:26;13.30;46.20
40534;DHT22;26233;51.894;10.192;2024-01-27T14:18:54;13.20;46.10
40534;DHT22;26233;51.894;10.192;2024-01-27T14:21:22;13.10;45.80
40534;DHT22;26233;51.894;10.192;2024-01-27T14:23:50;13.10;45.80
40534;DHT22;26233;51.894;10.192;2024-01-27T14:26:23;13.00;45.70
40534;DHT22;26233;51.894;10.192;2024-01-27T14:28:50;12.90;45.70
40534;DHT22;26233;51.894;10.192;2024-01-27T14:31:17;12.90;45.90
40534;DHT22;26233;51.894;10.192;2024-01-27T14:33:44;12.80;45.80
40534;DHT22;26233;51.894;10.192;2024-01-27T14:36:12;12.80;45.80
40534;DHT22;26233;51.894;10.192;2024-01-27T14:38:40;12.70;45.70
40534;DHT22;26233;51.894;10.192;2024-01-27T14:41:09;12.70;45.60
40534;DHT22;26233;51.894;10.192;2024-01-27T14:43:37;12.60;45.40
40534;DHT22;26233;51.894;10.192;2024-01-27T14:46:05;12.50;45.40
40534;DHT22;26233;51.894;10.192;2024-01-27T14:48:32;12.40;45.40
40534;DHT22;26233;51.894;10.192;2024-01-27T14:51:01;12.30;45.80
40534;DHT22;26233;51.894;10.192;2024-01-27T14:53:29;12.20;45.10
40534;DHT22;26233;51.894;10.192;2024-01-27T14:55:56;12.10;45.10
40534;DHT22;26233;51.894;10.192;2024-01-27T14:58:25;12.00;45.00
40534;DHT22;26233;51.894;10.192;2024-01-27T15:00:52;11.90;45.00
40534;DHT22;26233;51.894;10.192;2024-01-27T15:03:20;11.90;45.00
40534;DHT22;26233;51.894;10.192;2024-01-27T15:05:49;11.80;44.90
40534;DHT22;26233;51.894;10.192;2024-01-27T15:08:16;11.70;44.90
40534;DHT22;26233;51.894;10.192;2024-01-27T15:10:45;11.60;45.00
40534;DHT22;26233;51.894;10.192;2024-01-27T15:13:13;11.60;45.00
40534;DHT22;26233;51.894;10.192;2024-01-27T15:15:43;11.50;45.50
40534;DHT22;26233;51.894;10.192;2024-01-27T15:18:11;11.40;44.80
40534;DHT22;26233;51.894;10.192;2024-01-27T15:20:38;11.30;44.80
40534;DHT22;26233;51.894;10.192;2024-01-27T15:23:05;11.20;44.70
40534;DHT22;26233;51.894;10.192;2024-01-27T15:25:33;11.20;44.80
40534;DHT22;26233;51.894;10.192;2024-01-27T15:28:01;11.10;44.70